Details From YBUD - Bundaberg
To YGFN - Grafton
Flight Number -
Tags generated
Created
Modified
Stats Distance 321 nm / 594 km
Max Altitude 35,000 ft / 10,668 m
Waypoints 7
Social Downloads 0
Likes 0
Share VATSIM

Download

Looking for another format? Having issues loading an existing format? Contact us
Advertisement - Login to hide

Notes

Basic altitude profile: - Ascent Rate: 2500ft/min - Ascent Speed: 250kts - Cruise Altitude: 35000ft - Cruise Speed: 420kts - Descent Rate: 1500ft/min - Descent Speed: 250kts Options: - Use NATs: yes - Use PACOTS: yes - Use low airways: yes - Use high airways: yes

Route

YBUD LOAFA Q26 BN H62 LAV YGFN

ID Type Via Altitude Latitude Longitude Leg Dist Tot Dist Heading (true) Name
O YBUD APT - 0 ft / 0 m -24.90342˚ 152.32022˚ - 0 nm - Bundaberg
LOAFA FIX - 4,900 ft / 1,494 m -25.03472˚ 152.11083˚ 13 nm 13 nm 235° / 235° -
CORAL FIX Q26 (AWY-LO) 35,000 ft / 10,668 m -26.54778˚ 153.31944˚ 111 nm 125 nm 145° / 144° -
BN VOR Q26 (AWY-HI) 30,000 ft / 9,144 m -27.36583˚ 153.13917˚ 50 nm 175 nm 191° / 191° BRISBANE VOR-DME
WIZZA FIX H62 (AWY-HI) 26,000 ft / 7,925 m -27.67306˚ 153.04861˚ 19 nm 194 nm 195° / 195° -
LAV VOR H62 (AWY-HI) 20,400 ft / 6,218 m -28.08982˚ 152.92479˚ 25 nm 220 nm 195° / 195° LARAVALE VOR
O YGFN APT - 0 ft / 0 m -29.75477˚ 153.03116˚ 100 nm 320 nm 177° / 177° Grafton

Altitude Profile

Advertisement - Login to hide

Weather


0- 5 10 15 20 25 30 35+ Temperature / ° C

Clouds and Precipitation
Forecast for 2017-12-18 06:00 UTC. Updated a few seconds ago

Ground ~20,000 ft ~40,000 ft Winds

YBUD

Details ICAO YBUD (BDB)
Name Bundaberg
Region Australia
Timezone Australia/Brisbane (UTC+10.0)
Stats Elevation 106 ft / 32 m (AMSL)
Location -24.903419° 152.320218°
Runways 2
Magnetic Variation 10.077° E

METAR

YBUD 180500Z AUTO 08011KT 9999 // NCD 29/18 Q1012

Decode

TAF

Not found

Departure Runways

ID Width Length Bearing (true) Bearing (mag) Surface Threshold Offset Overrun Length
07 95 ft / 29 m 3,704 ft / 1,129 m 68.50° 58.42° Grass 0 ft / 0 m 0 ft / 0 m
14 98 ft / 30 m 5,042 ft / 1,537 m 147.90° 137.82° Asphalt 331 ft / 101 m 30 ft / 9 m
25 95 ft / 29 m 3,704 ft / 1,129 m 248.50° 238.42° Grass 0 ft / 0 m 0 ft / 0 m
32 98 ft / 30 m 5,042 ft / 1,537 m 327.90° 317.82° Asphalt 0 ft / 0 m 39 ft / 12 m

YGFN

Details ICAO YGFN (GFN)
Name Grafton
Region Australia
Timezone Australia/Sydney (UTC+11.0)
Stats Elevation 110 ft / 34 m (AMSL)
Location -29.754771° 153.031156°
Runways 1
Magnetic Variation 11.700° E

METAR

YGFN 180500Z AUTO 05011KT 9999 // NCD 30/18 Q1011

Decode

TAF

Not found

Destination Runways

ID Width Length Bearing (true) Bearing (mag) Surface Threshold Offset Overrun Length
18 98 ft / 30 m 5,618 ft / 1,712 m 185.20° 173.50° Asphalt 0 ft / 0 m 0 ft / 0 m
36 98 ft / 30 m 5,618 ft / 1,712 m 5.20° 353.50° Asphalt 0 ft / 0 m 0 ft / 0 m

Popular Alternatives